sensor_id;sensor_type;location;lat;lon;timestamp;P1;durP1;ratioP1;P2;durP2;ratioP2
1651;SDS011;823;49.028;8.454;2022-11-18T00:00:13;5.60;;;1.33;;
1651;SDS011;823;49.028;8.454;2022-11-18T00:05:13;10.00;;;1.40;;
1651;SDS011;823;49.028;8.454;2022-11-18T00:10:14;5.70;;;1.40;;
1651;SDS011;823;49.028;8.454;2022-11-18T00:15:14;2.90;;;1.70;;
1651;SDS011;823;49.028;8.454;2022-11-18T00:20:15;4.87;;;2.20;;
1651;SDS011;823;49.028;8.454;2022-11-18T00:25:15;6.57;;;3.20;;
1651;SDS011;823;49.028;8.454;2022-11-18T00:30:15;5.05;;;2.90;;
1651;SDS011;823;49.028;8.454;2022-11-18T00:35:16;6.53;;;2.70;;
1651;SDS011;823;49.028;8.454;2022-11-18T00:40:16;11.32;;;3.72;;
1651;SDS011;823;49.028;8.454;2022-11-18T00:45:17;6.82;;;2.45;;
1651;SDS011;823;49.028;8.454;2022-11-18T00:50:18;5.30;;;3.03;;
1651;SDS011;823;49.028;8.454;2022-11-18T00:55:19;8.27;;;3.70;;
1651;SDS011;823;49.028;8.454;2022-11-18T01:00:19;8.80;;;3.47;;
1651;SDS011;823;49.028;8.454;2022-11-18T01:05:20;8.13;;;3.77;;
1651;SDS011;823;49.028;8.454;2022-11-18T01:10:20;6.87;;;3.13;;
1651;SDS011;823;49.028;8.454;2022-11-18T01:15:20;11.50;;;2.97;;
1651;SDS011;823;49.028;8.454;2022-11-18T01:20:20;5.35;;;3.40;;
1651;SDS011;823;49.028;8.454;2022-11-18T01:25:21;11.20;;;3.37;;
1651;SDS011;823;49.028;8.454;2022-11-18T01:30:21;7.75;;;2.60;;
1651;SDS011;823;49.028;8.454;2022-11-18T01:35:22;4.80;;;2.63;;
1651;SDS011;823;49.028;8.454;2022-11-18T01:40:24;6.50;;;3.13;;
1651;SDS011;823;49.028;8.454;2022-11-18T01:45:30;5.23;;;2.37;;
1651;SDS011;823;49.028;8.454;2022-11-18T01:50:34;7.57;;;2.60;;
1651;SDS011;823;49.028;8.454;2022-11-18T01:55:37;6.67;;;3.10;;
1651;SDS011;823;49.028;8.454;2022-11-18T02:00:43;15.10;;;4.20;;
1651;SDS011;823;49.028;8.454;2022-11-18T02:05:44;7.43;;;3.60;;
1651;SDS011;823;49.028;8.454;2022-11-18T02:10:46;9.27;;;3.50;;
1651;SDS011;823;49.028;8.454;2022-11-18T02:16:33;9.87;;;3.13;;
1651;SDS011;823;49.028;8.454;2022-11-18T02:21:26;17.03;;;3.43;;
1651;SDS011;823;49.028;8.454;2022-11-18T02:32:04;3.50;;;1.73;;
1651;SDS011;823;49.028;8.454;2022-11-18T02:42:41;1.80;;;1.10;;
1651;SDS011;823;49.028;8.454;2022-11-18T02:47:44;4.07;;;1.37;;
1651;SDS011;823;49.028;8.454;2022-11-18T02:52:46;2.17;;;1.20;;
1651;SDS011;823;49.028;8.454;2022-11-18T02:57:52;1.60;;;1.00;;
1651;SDS011;823;49.028;8.454;2022-11-18T03:02:53;2.57;;;1.30;;
1651;SDS011;823;49.028;8.454;2022-11-18T03:07:54;10.60;;;0.93;;
1651;SDS011;823;49.028;8.454;2022-11-18T03:13:15;0.97;;;0.87;;
1651;SDS011;823;49.028;8.454;2022-11-18T03:23:47;1.93;;;0.93;;
1651;SDS011;823;49.028;8.454;2022-11-18T03:28:55;2.70;;;1.00;;
1651;SDS011;823;49.028;8.454;2022-11-18T03:34:01;1.67;;;1.10;;
1651;SDS011;823;49.028;8.454;2022-11-18T03:39:11;4.43;;;0.80;;
1651;SDS011;823;49.028;8.454;2022-11-18T03:44:19;6.10;;;1.03;;
1651;SDS011;823;49.028;8.454;2022-11-18T03:49:30;1.20;;;0.80;;
1651;SDS011;823;49.028;8.454;2022-11-18T03:54:34;2.00;;;0.90;;
1651;SDS011;823;49.028;8.454;2022-11-18T04:04:44;2.37;;;0.57;;
1651;SDS011;823;49.028;8.454;2022-11-18T04:10:10;2.50;;;1.20;;
1651;SDS011;823;49.028;8.454;2022-11-18T04:15:17;4.67;;;1.17;;
1651;SDS011;823;49.028;8.454;2022-11-18T04:20:19;7.27;;;1.10;;
1651;SDS011;823;49.028;8.454;2022-11-18T04:25:21;1.20;;;0.70;;
1651;SDS011;823;49.028;8.454;2022-11-18T04:30:23;5.20;;;1.10;;
1651;SDS011;823;49.028;8.454;2022-11-18T04:35:24;10.40;;;0.90;;
1651;SDS011;823;49.028;8.454;2022-11-18T04:40:24;7.20;;;1.23;;
1651;SDS011;823;49.028;8.454;2022-11-18T04:45:24;6.83;;;1.07;;
1651;SDS011;823;49.028;8.454;2022-11-18T04:50:25;14.05;;;1.15;;
1651;SDS011;823;49.028;8.454;2022-11-18T04:55:25;5.27;;;1.27;;
1651;SDS011;823;49.028;8.454;2022-11-18T05:00:26;2.10;;;0.90;;
1651;SDS011;823;49.028;8.454;2022-11-18T05:05:26;1.20;;;0.60;;
1651;SDS011;823;49.028;8.454;2022-11-18T05:10:27;3.65;;;1.02;;
1651;SDS011;823;49.028;8.454;2022-11-18T05:15:27;2.00;;;0.90;;
1651;SDS011;823;49.028;8.454;2022-11-18T05:20:27;1.65;;;0.70;;
1651;SDS011;823;49.028;8.454;2022-11-18T05:25:28;2.25;;;0.90;;
1651;SDS011;823;49.028;8.454;2022-11-18T05:30:28;0.77;;;0.40;;
1651;SDS011;823;49.028;8.454;2022-11-18T05:35:28;4.90;;;0.80;;
1651;SDS011;823;49.028;8.454;2022-11-18T05:40:28;6.57;;;0.70;;
1651;SDS011;823;49.028;8.454;2022-11-18T05:45:29;2.80;;;0.60;;
1651;SDS011;823;49.028;8.454;2022-11-18T05:50:30;3.73;;;0.73;;
1651;SDS011;823;49.028;8.454;2022-11-18T05:55:36;3.20;;;0.73;;
1651;SDS011;823;49.028;8.454;2022-11-18T06:00:41;1.20;;;0.70;;
1651;SDS011;823;49.028;8.454;2022-11-18T06:05:43;1.63;;;0.70;;
1651;SDS011;823;49.028;8.454;2022-11-18T06:10:44;3.47;;;1.03;;
1651;SDS011;823;49.028;8.454;2022-11-18T06:15:46;4.00;;;0.90;;
1651;SDS011;823;49.028;8.454;2022-11-18T06:20:46;1.23;;;0.80;;
1651;SDS011;823;49.028;8.454;2022-11-18T06:25:47;1.83;;;1.33;;
1651;SDS011;823;49.028;8.454;2022-11-18T06:30:48;2.07;;;1.27;;
1651;SDS011;823;49.028;8.454;2022-11-18T06:35:48;2.40;;;0.80;;
1651;SDS011;823;49.028;8.454;2022-11-18T06:40:48;1.27;;;0.75;;
1651;SDS011;823;49.028;8.454;2022-11-18T06:45:49;0.95;;;0.52;;
1651;SDS011;823;49.028;8.454;2022-11-18T06:51:07;3.93;;;1.03;;
1651;SDS011;823;49.028;8.454;2022-11-18T06:56:09;3.03;;;0.65;;
1651;SDS011;823;49.028;8.454;2022-11-18T07:01:15;1.47;;;1.00;;
1651;SDS011;823;49.028;8.454;2022-11-18T07:06:18;1.30;;;0.80;;
1651;SDS011;823;49.028;8.454;2022-11-18T07:11:22;2.17;;;1.10;;
1651;SDS011;823;49.028;8.454;2022-11-18T07:16:24;1.73;;;0.90;;
1651;SDS011;823;49.028;8.454;2022-11-18T07:21:26;2.00;;;0.90;;
1651;SDS011;823;49.028;8.454;2022-11-18T07:26:28;2.10;;;0.90;;
1651;SDS011;823;49.028;8.454;2022-11-18T07:31:28;3.10;;;1.00;;
1651;SDS011;823;49.028;8.454;2022-11-18T07:36:28;10.23;;;4.87;;
1651;SDS011;823;49.028;8.454;2022-11-18T07:41:29;3.80;;;1.60;;
1651;SDS011;823;49.028;8.454;2022-11-18T07:46:33;2.50;;;1.30;;
1651;SDS011;823;49.028;8.454;2022-11-18T07:51:36;2.20;;;1.20;;
1651;SDS011;823;49.028;8.454;2022-11-18T07:56:37;4.50;;;2.13;;
1651;SDS011;823;49.028;8.454;2022-11-18T08:01:38;4.20;;;2.40;;
1651;SDS011;823;49.028;8.454;2022-11-18T08:06:38;6.90;;;2.60;;
1651;SDS011;823;49.028;8.454;2022-11-18T08:11:39;3.60;;;1.97;;
1651;SDS011;823;49.028;8.454;2022-11-18T08:16:39;3.90;;;2.00;;
1651;SDS011;823;49.028;8.454;2022-11-18T08:21:40;3.30;;;1.50;;
1651;SDS011;823;49.028;8.454;2022-11-18T08:26:40;2.17;;;1.47;;
1651;SDS011;823;49.028;8.454;2022-11-18T08:31:40;2.20;;;1.30;;
1651;SDS011;823;49.028;8.454;2022-11-18T08:36:41;3.85;;;1.27;;
1651;SDS011;823;49.028;8.454;2022-11-18T08:41:41;2.83;;;1.50;;
1651;SDS011;823;49.028;8.454;2022-11-18T08:46:43;4.03;;;1.83;;
1651;SDS011;823;49.028;8.454;2022-11-18T08:51:46;4.97;;;2.83;;
1651;SDS011;823;49.028;8.454;2022-11-18T08:56:46;8.53;;;4.87;;
1651;SDS011;823;49.028;8.454;2022-11-18T09:01:49;4.80;;;2.37;;
1651;SDS011;823;49.028;8.454;2022-11-18T09:06:49;3.30;;;2.47;;
1651;SDS011;823;49.028;8.454;2022-11-18T09:11:50;3.42;;;2.38;;
1651;SDS011;823;49.028;8.454;2022-11-18T09:16:50;4.80;;;2.75;;
1651;SDS011;823;49.028;8.454;2022-11-18T09:21:50;6.27;;;3.00;;
1651;SDS011;823;49.028;8.454;2022-11-18T09:26:51;10.30;;;4.37;;
1651;SDS011;823;49.028;8.454;2022-11-18T09:31:52;16.70;;;7.03;;
1651;SDS011;823;49.028;8.454;2022-11-18T09:36:54;6.13;;;2.90;;
1651;SDS011;823;49.028;8.454;2022-11-18T09:42:18;11.70;;;5.07;;
1651;SDS011;823;49.028;8.454;2022-11-18T09:47:36;5.90;;;2.93;;
1651;SDS011;823;49.028;8.454;2022-11-18T09:57:58;5.00;;;3.43;;
1651;SDS011;823;49.028;8.454;2022-11-18T10:08:35;6.53;;;3.50;;
1651;SDS011;823;49.028;8.454;2022-11-18T10:13:59;9.07;;;4.87;;
1651;SDS011;823;49.028;8.454;2022-11-18T10:19:24;13.57;;;3.73;;
1651;SDS011;823;49.028;8.454;2022-11-18T10:24:32;7.03;;;3.67;;
1651;SDS011;823;49.028;8.454;2022-11-18T10:29:45;8.30;;;2.87;;
1651;SDS011;823;49.028;8.454;2022-11-18T10:34:52;6.60;;;3.37;;
1651;SDS011;823;49.028;8.454;2022-11-18T10:39:55;12.60;;;4.13;;
1651;SDS011;823;49.028;8.454;2022-11-18T10:45:13;8.80;;;2.93;;
1651;SDS011;823;49.028;8.454;2022-11-18T10:50:30;4.23;;;2.97;;
1651;SDS011;823;49.028;8.454;2022-11-18T10:55:32;8.60;;;3.03;;
1651;SDS011;823;49.028;8.454;2022-11-18T11:05:41;5.73;;;2.40;;
1651;SDS011;823;49.028;8.454;2022-11-18T11:10:41;5.43;;;3.10;;
1651;SDS011;823;49.028;8.454;2022-11-18T11:15:54;6.73;;;3.23;;
1651;SDS011;823;49.028;8.454;2022-11-18T11:20:57;5.53;;;2.73;;
1651;SDS011;823;49.028;8.454;2022-11-18T11:41:43;4.07;;;2.27;;
1651;SDS011;823;49.028;8.454;2022-11-18T11:52:30;3.43;;;1.53;;
1651;SDS011;823;49.028;8.454;2022-11-18T12:03:21;5.57;;;2.33;;
1651;SDS011;823;49.028;8.454;2022-11-18T12:08:36;9.60;;;2.60;;
1651;SDS011;823;49.028;8.454;2022-11-18T12:19:06;8.10;;;1.70;;
1651;SDS011;823;49.028;8.454;2022-11-18T12:29:34;8.50;;;1.70;;
1651;SDS011;823;49.028;8.454;2022-11-18T12:34:41;8.30;;;2.10;;
1651;SDS011;823;49.028;8.454;2022-11-18T12:44:44;4.15;;;1.90;;
1651;SDS011;823;49.028;8.454;2022-11-18T12:55:00;10.23;;;1.70;;
1651;SDS011;823;49.028;8.454;2022-11-18T13:00:15;3.43;;;1.53;;
1651;SDS011;823;49.028;8.454;2022-11-18T13:05:26;2.97;;;1.70;;
1651;SDS011;823;49.028;8.454;2022-11-18T13:10:30;2.33;;;0.90;;
1651;SDS011;823;49.028;8.454;2022-11-18T13:15:33;4.20;;;1.00;;
1651;SDS011;823;49.028;8.454;2022-11-18T13:21:00;2.27;;;0.80;;
1651;SDS011;823;49.028;8.454;2022-11-18T13:26:25;2.63;;;1.40;;
1651;SDS011;823;49.028;8.454;2022-11-18T13:36:59;2.20;;;0.80;;
1651;SDS011;823;49.028;8.454;2022-11-18T13:42:12;1.70;;;1.07;;
1651;SDS011;823;49.028;8.454;2022-11-18T13:47:38;2.27;;;1.00;;
1651;SDS011;823;49.028;8.454;2022-11-18T13:52:39;9.13;;;1.10;;
1651;SDS011;823;49.028;8.454;2022-11-18T13:57:50;2.93;;;0.87;;
1651;SDS011;823;49.028;8.454;2022-11-18T14:02:56;4.53;;;0.90;;
1651;SDS011;823;49.028;8.454;2022-11-18T14:08:05;1.90;;;1.00;;
1651;SDS011;823;49.028;8.454;2022-11-18T14:13:26;3.63;;;1.53;;
1651;SDS011;823;49.028;8.454;2022-11-18T14:18:34;2.50;;;1.33;;
1651;SDS011;823;49.028;8.454;2022-11-18T14:23:40;6.97;;;1.33;;
1651;SDS011;823;49.028;8.454;2022-11-18T14:28:47;4.00;;;1.47;;
1651;SDS011;823;49.028;8.454;2022-11-18T14:34:15;2.67;;;1.13;;
1651;SDS011;823;49.028;8.454;2022-11-18T14:39:26;2.30;;;1.03;;
1651;SDS011;823;49.028;8.454;2022-11-18T14:44:28;2.50;;;0.87;;
1651;SDS011;823;49.028;8.454;2022-11-18T14:49:29;2.60;;;1.03;;
1651;SDS011;823;49.028;8.454;2022-11-18T14:54:31;2.63;;;1.20;;
1651;SDS011;823;49.028;8.454;2022-11-18T14:59:31;3.23;;;1.90;;
1651;SDS011;823;49.028;8.454;2022-11-18T15:04:32;3.55;;;2.28;;
1651;SDS011;823;49.028;8.454;2022-11-18T15:09:32;3.27;;;1.33;;
1651;SDS011;823;49.028;8.454;2022-11-18T15:14:33;1.83;;;1.10;;
1651;SDS011;823;49.028;8.454;2022-11-18T15:19:34;3.97;;;1.57;;
1651;SDS011;823;49.028;8.454;2022-11-18T15:24:36;5.70;;;1.63;;
1651;SDS011;823;49.028;8.454;2022-11-18T15:29:36;5.37;;;1.60;;
1651;SDS011;823;49.028;8.454;2022-11-18T15:34:36;5.60;;;1.67;;
1651;SDS011;823;49.028;8.454;2022-11-18T15:39:37;16.60;;;2.03;;
1651;SDS011;823;49.028;8.454;2022-11-18T15:44:37;3.80;;;1.20;;
1651;SDS011;823;49.028;8.454;2022-11-18T15:49:37;7.82;;;1.85;;
1651;SDS011;823;49.028;8.454;2022-11-18T15:54:42;8.10;;;2.77;;
1651;SDS011;823;49.028;8.454;2022-11-18T15:59:43;3.43;;;1.53;;
1651;SDS011;823;49.028;8.454;2022-11-18T16:04:43;4.10;;;1.80;;
1651;SDS011;823;49.028;8.454;2022-11-18T16:09:44;5.40;;;1.70;;
1651;SDS011;823;49.028;8.454;2022-11-18T16:15:02;3.60;;;1.60;;
1651;SDS011;823;49.028;8.454;2022-11-18T16:20:21;7.20;;;1.37;;
1651;SDS011;823;49.028;8.454;2022-11-18T16:25:22;6.07;;;1.70;;
1651;SDS011;823;49.028;8.454;2022-11-18T16:30:23;1.90;;;1.50;;
1651;SDS011;823;49.028;8.454;2022-11-18T16:35:46;3.47;;;1.20;;
1651;SDS011;823;49.028;8.454;2022-11-18T16:40:53;3.10;;;1.77;;
1651;SDS011;823;49.028;8.454;2022-11-18T16:45:55;6.90;;;2.63;;
1651;SDS011;823;49.028;8.454;2022-11-18T16:56:16;6.50;;;3.37;;
1651;SDS011;823;49.028;8.454;2022-11-18T17:01:16;4.43;;;2.70;;
1651;SDS011;823;49.028;8.454;2022-11-18T17:06:17;5.37;;;1.80;;
1651;SDS011;823;49.028;8.454;2022-11-18T17:11:18;7.40;;;1.77;;
1651;SDS011;823;49.028;8.454;2022-11-18T17:16:19;3.27;;;1.43;;
1651;SDS011;823;49.028;8.454;2022-11-18T17:21:20;7.37;;;1.50;;
1651;SDS011;823;49.028;8.454;2022-11-18T17:26:22;14.03;;;2.63;;
1651;SDS011;823;49.028;8.454;2022-11-18T17:31:24;2.70;;;1.90;;
1651;SDS011;823;49.028;8.454;2022-11-18T17:36:25;3.53;;;1.80;;
1651;SDS011;823;49.028;8.454;2022-11-18T17:41:26;4.07;;;1.80;;
1651;SDS011;823;49.028;8.454;2022-11-18T17:46:46;5.80;;;1.73;;
1651;SDS011;823;49.028;8.454;2022-11-18T17:51:46;9.18;;;1.75;;
1651;SDS011;823;49.028;8.454;2022-11-18T17:56:47;5.40;;;1.80;;
1651;SDS011;823;49.028;8.454;2022-11-18T18:01:51;7.40;;;1.93;;
1651;SDS011;823;49.028;8.454;2022-11-18T18:06:51;4.03;;;2.07;;
1651;SDS011;823;49.028;8.454;2022-11-18T18:11:52;2.77;;;2.03;;
1651;SDS011;823;49.028;8.454;2022-11-18T18:16:52;6.17;;;2.40;;
1651;SDS011;823;49.028;8.454;2022-11-18T18:21:53;9.93;;;3.97;;
1651;SDS011;823;49.028;8.454;2022-11-18T18:26:53;6.97;;;2.80;;
1651;SDS011;823;49.028;8.454;2022-11-18T18:31:53;3.42;;;2.55;;
1651;SDS011;823;49.028;8.454;2022-11-18T18:36:54;6.80;;;2.70;;
1651;SDS011;823;49.028;8.454;2022-11-18T18:41:54;12.13;;;3.15;;
1651;SDS011;823;49.028;8.454;2022-11-18T18:46:54;4.72;;;2.03;;
1651;SDS011;823;49.028;8.454;2022-11-18T18:51:54;6.15;;;3.35;;
1651;SDS011;823;49.028;8.454;2022-11-18T18:56:55;5.10;;;2.53;;
1651;SDS011;823;49.028;8.454;2022-11-18T19:01:55;4.80;;;1.77;;
1651;SDS011;823;49.028;8.454;2022-11-18T19:06:55;3.60;;;2.10;;
1651;SDS011;823;49.028;8.454;2022-11-18T19:11:56;2.47;;;1.60;;
1651;SDS011;823;49.028;8.454;2022-11-18T19:17:15;2.83;;;1.50;;
1651;SDS011;823;49.028;8.454;2022-11-18T19:22:15;3.00;;;1.70;;
1651;SDS011;823;49.028;8.454;2022-11-18T19:27:16;4.43;;;2.73;;
1651;SDS011;823;49.028;8.454;2022-11-18T19:32:17;7.17;;;1.80;;
1651;SDS011;823;49.028;8.454;2022-11-18T19:37:18;9.40;;;2.53;;
1651;SDS011;823;49.028;8.454;2022-11-18T19:42:18;9.00;;;2.30;;
1651;SDS011;823;49.028;8.454;2022-11-18T19:47:19;8.70;;;2.50;;
1651;SDS011;823;49.028;8.454;2022-11-18T19:52:19;3.20;;;2.20;;
1651;SDS011;823;49.028;8.454;2022-11-18T19:57:19;4.60;;;1.70;;
1651;SDS011;823;49.028;8.454;2022-11-18T20:02:20;3.83;;;1.88;;
1651;SDS011;823;49.028;8.454;2022-11-18T20:07:21;8.07;;;1.90;;
1651;SDS011;823;49.028;8.454;2022-11-18T20:12:21;6.07;;;2.40;;
1651;SDS011;823;49.028;8.454;2022-11-18T20:17:22;8.43;;;2.83;;
1651;SDS011;823;49.028;8.454;2022-11-18T20:22:23;12.10;;;2.93;;
1651;SDS011;823;49.028;8.454;2022-11-18T20:27:23;7.00;;;2.40;;
1651;SDS011;823;49.028;8.454;2022-11-18T20:32:23;9.13;;;2.37;;
1651;SDS011;823;49.028;8.454;2022-11-18T20:37:24;6.28;;;2.47;;
1651;SDS011;823;49.028;8.454;2022-11-18T20:42:24;5.07;;;1.92;;
1651;SDS011;823;49.028;8.454;2022-11-18T20:47:43;4.30;;;2.23;;
1651;SDS011;823;49.028;8.454;2022-11-18T20:52:43;5.68;;;2.25;;
1651;SDS011;823;49.028;8.454;2022-11-18T20:57:43;9.10;;;2.20;;
1651;SDS011;823;49.028;8.454;2022-11-18T21:02:44;3.73;;;1.80;;
1651;SDS011;823;49.028;8.454;2022-11-18T21:07:44;4.68;;;1.92;;
1651;SDS011;823;49.028;8.454;2022-11-18T21:12:45;3.47;;;1.77;;
1651;SDS011;823;49.028;8.454;2022-11-18T21:18:04;3.13;;;2.00;;
1651;SDS011;823;49.028;8.454;2022-11-18T21:23:04;5.23;;;2.50;;
1651;SDS011;823;49.028;8.454;2022-11-18T21:28:05;4.40;;;2.30;;
1651;SDS011;823;49.028;8.454;2022-11-18T21:33:05;2.55;;;1.90;;
1651;SDS011;823;49.028;8.454;2022-11-18T21:38:06;5.73;;;2.33;;
1651;SDS011;823;49.028;8.454;2022-11-18T21:43:06;8.85;;;2.42;;
1651;SDS011;823;49.028;8.454;2022-11-18T21:48:07;10.23;;;2.20;;
1651;SDS011;823;49.028;8.454;2022-11-18T21:53:07;2.90;;;2.00;;
1651;SDS011;823;49.028;8.454;2022-11-18T21:58:08;4.67;;;2.10;;
1651;SDS011;823;49.028;8.454;2022-11-18T22:03:08;9.65;;;2.78;;
1651;SDS011;823;49.028;8.454;2022-11-18T22:08:09;6.10;;;3.30;;
1651;SDS011;823;49.028;8.454;2022-11-18T22:13:10;5.90;;;3.20;;
1651;SDS011;823;49.028;8.454;2022-11-18T22:18:10;7.23;;;3.90;;
1651;SDS011;823;49.028;8.454;2022-11-18T22:23:10;4.87;;;3.50;;
1651;SDS011;823;49.028;8.454;2022-11-18T22:28:10;6.77;;;4.37;;
1651;SDS011;823;49.028;8.454;2022-11-18T22:33:11;16.73;;;6.00;;
1651;SDS011;823;49.028;8.454;2022-11-18T22:38:12;9.80;;;4.53;;
1651;SDS011;823;49.028;8.454;2022-11-18T22:43:12;9.43;;;4.53;;
1651;SDS011;823;49.028;8.454;2022-11-18T22:48:12;6.78;;;4.65;;
1651;SDS011;823;49.028;8.454;2022-11-18T22:53:13;8.45;;;2.40;;
1651;SDS011;823;49.028;8.454;2022-11-18T22:58:13;7.07;;;2.67;;
1651;SDS011;823;49.028;8.454;2022-11-18T23:03:13;8.30;;;1.80;;
1651;SDS011;823;49.028;8.454;2022-11-18T23:08:13;5.35;;;2.25;;
1651;SDS011;823;49.028;8.454;2022-11-18T23:13:14;4.32;;;1.92;;
1651;SDS011;823;49.028;8.454;2022-11-18T23:18:33;5.53;;;2.30;;
1651;SDS011;823;49.028;8.454;2022-11-18T23:23:33;5.70;;;2.70;;
1651;SDS011;823;49.028;8.454;2022-11-18T23:28:34;8.13;;;3.67;;
1651;SDS011;823;49.028;8.454;2022-11-18T23:33:36;7.90;;;2.93;;
1651;SDS011;823;49.028;8.454;2022-11-18T23:38:38;8.17;;;3.50;;
1651;SDS011;823;49.028;8.454;2022-11-18T23:43:39;6.93;;;3.53;;
1651;SDS011;823;49.028;8.454;2022-11-18T23:48:40;11.13;;;4.03;;
1651;SDS011;823;49.028;8.454;2022-11-18T23:53:42;13.47;;;3.77;;
1651;SDS011;823;49.028;8.454;2022-11-18T23:58:44;13.77;;;3.80;;
